CheckWX is a tool to help pilots better visualize weather data.  It is not intended as a substitute for an official pre-flight weather briefing.

12:03:32 UTC

LATI METAR
Tirana International Mother Teresa Airport
Tirana, Albania
Current

14 mins ago

LATI 201150Z 34007KT 290V020 CAVOK 34/21 Q1016 NOSIG
Observed
Aug-20 @ 11:50 UTC
Wind
  • 340° at 7 KTS
Visibility
10,000+ meters
Flight Rules
VFR
Cloud Levels
  • Clear skies
Temperature
34°C / 93°F
Dewpoint
21°C / 70°F
Heat Index
37°C / 99°F
Humidity
47%
Altimeter
30" Hg
Pressure
1015.92 hPa
Previous

44 mins ago

LATI 201120Z 35006KT 310V030 CAVOK 33/21 Q1016 NOSIG
Observed
Aug-20 @ 11:20 UTC
Wind
  • 350° at 6 KTS
Visibility
10,000+ meters
Flight Rules
VFR
Cloud Levels
  • Clear skies
Temperature
33°C / 91°F
Dewpoint
21°C / 70°F
Heat Index
36°C / 96°F
Humidity
49%
Altimeter
30" Hg
Pressure
1015.92 hPa
Previous

1 hour ago

LATI 201050Z 35004KT 290V050 CAVOK 34/21 Q1016 NOSIG
Observed
Aug-20 @ 10:50 UTC
Wind
  • 350° at 4 KTS
Visibility
10,000+ meters
Flight Rules
VFR
Cloud Levels
  • Clear skies
Temperature
34°C / 93°F
Dewpoint
21°C / 70°F
Heat Index
37°C / 99°F
Humidity
47%
Altimeter
30" Hg
Pressure
1015.92 hPa